Time;durP1;ratioP1;P1;durP2;ratioP2;P2;SDS_P1;SDS_P2;PMS_P1;PMS_P2;Temp;Humidity;BMP_temperature;BMP_pressure;BME280_temperature;BME280_humidity;BME280_pressure;Samples;Min_cycle;Max_cycle;Signal;HPM_P1;HPM_P2
2021/12/02 00:00:08;;;;;;;;;;;179.70;2252.80;;;;;;5054271;28;20661;-79
2021/12/02 00:02:36;;;;;;;;;;;179.70;2252.80;;;;;;5053003;28;19911;-76
2021/12/02 00:05:02;;;;;;;;;;;179.70;2252.80;;;;;;5054252;28;19916;-79
2021/12/02 00:07:28;;;;;;;;;;;179.50;2252.80;;;;;;5053241;28;19909;-80
2021/12/02 00:09:55;;;;;;;;;;;179.70;2252.80;;;;;;5053155;28;20300;-79
2021/12/02 00:12:20;;;;;;;;;;;179.70;2252.80;;;;;;5053940;28;19905;-80
2021/12/02 00:14:48;;;;;;;;;;;179.70;2252.80;;;;;;5054056;28;19909;-79
2021/12/02 00:17:22;;;;;;;;;;;179.70;2252.80;;;;;;5052795;28;20356;-80
2021/12/02 00:22:33;;;;;;;;;;;179.70;2252.80;;;;;;5053590;28;20012;-79
2021/12/02 00:25:00;;;;;;;;;;;179.70;2252.80;;;;;;5054118;28;19912;-80
2021/12/02 00:27:28;;;;;;;;;;;179.90;2252.80;;;;;;5054054;28;19912;-79
2021/12/02 00:29:55;;;;;;;;;;;179.70;2252.80;;;;;;5053732;28;19904;-79
2021/12/02 00:32:22;;;;;;;;;;;179.70;2252.80;;;;;;5052896;28;20372;-80
2021/12/02 00:34:48;;;;;;;;;;;179.70;2252.80;;;;;;5053741;28;19912;-79
2021/12/02 00:37:13;;;;;;;;;;;179.70;2252.80;;;;;;5053845;28;20353;-80
2021/12/02 00:39:39;;;;;;;;;;;179.70;2252.80;;;;;;5053695;28;20011;-75
2021/12/02 00:42:06;;;;;;;;;;;179.70;2252.80;;;;;;5053455;28;19905;-80
2021/12/02 00:44:32;;;;;;;;;;;179.50;2252.80;;;;;;5053501;28;19915;-77
2021/12/02 00:47:01;;;;;;;;;;;179.50;2252.80;;;;;;5053609;28;19905;-77
2021/12/02 00:49:27;;;;;;;;;;;179.60;2252.80;;;;;;5053555;28;19916;-80
2021/12/02 00:51:54;;;;;;;;;;;179.60;2252.80;;;;;;5053272;28;19976;-79
2021/12/02 00:54:21;;;;;;;;;;;179.60;2252.80;;;;;;5053374;28;20423;-75
2021/12/02 00:56:47;;;;;;;;;;;179.60;2252.80;;;;;;5053468;28;19912;-80
2021/12/02 00:59:13;;;;;;;;;;;179.70;2252.80;;;;;;5053305;28;19999;-80
2021/12/02 01:01:39;;;;;;;;;;;179.70;2252.80;;;;;;5053433;28;19937;-80
2021/12/02 01:04:07;;;;;;;;;;;179.80;2252.80;;;;;;5053299;28;19905;-79
2021/12/02 01:06:32;;;;;;;;;;;179.70;2252.80;;;;;;5053564;28;20360;-80
2021/12/02 01:08:58;;;;;;;;;;;179.80;2252.80;;;;;;5053251;28;19912;-79
2021/12/02 01:11:24;;;;;;;;;;;179.80;2252.80;;;;;;5053545;28;19905;-80
2021/12/02 01:13:49;;;;;;;;;;;179.80;2252.80;;;;;;5053186;28;19912;-79
2021/12/02 01:16:16;;;;;;;;;;;179.70;2252.80;;;;;;5053131;28;20292;-80
2021/12/02 01:18:41;;;;;;;;;;;179.70;2252.80;;;;;;5053072;28;19915;-80
2021/12/02 01:21:12;;;;;;;;;;;179.70;2252.80;;;;;;5053136;28;20412;-80
2021/12/02 01:23:37;;;;;;;;;;;179.70;2252.80;;;;;;5053409;28;19905;-78
2021/12/02 01:26:05;;;;;;;;;;;179.70;2252.80;;;;;;5052899;28;19911;-79
2021/12/02 01:28:31;;;;;;;;;;;179.60;2252.80;;;;;;5053379;28;19935;-79
2021/12/02 01:30:57;;;;;;;;;;;179.70;2252.80;;;;;;5052157;28;20003;-81
2021/12/02 01:33:24;;;;;;;;;;;179.70;2252.80;;;;;;5053364;28;19959;-81
2021/12/02 01:35:51;;;;;;;;;;;179.70;2252.80;;;;;;5056780;28;19960;-82
2021/12/02 01:38:17;;;;;;;;;;;179.70;2252.80;;;;;;5057271;28;19904;-81
2021/12/02 01:40:44;;;;;;;;;;;179.70;2252.80;;;;;;5056803;28;19939;-81
2021/12/02 01:43:13;;;;;;;;;;;179.70;2252.80;;;;;;5056911;28;20289;-78
2021/12/02 01:45:40;;;;;;;;;;;179.80;2252.80;;;;;;5056856;28;19951;-81
2021/12/02 01:48:08;;;;;;;;;;;179.80;2252.80;;;;;;5056629;28;19909;-81
2021/12/02 01:50:34;;;;;;;;;;;179.80;2252.80;;;;;;5057028;28;19974;-80
2021/12/02 01:53:00;;;;;;;;;;;179.90;2252.80;;;;;;5056870;28;19974;-80
2021/12/02 01:55:27;;;;;;;;;;;179.90;2252.80;;;;;;5056940;28;20002;-81
2021/12/02 01:58:00;;;;;;;;;;;180.00;2252.80;;;;;;5056801;28;19913;-81
2021/12/02 02:00:44;;;;;;;;;;;180.00;2252.80;;;;;;5056035;28;19905;-80
2021/12/02 02:03:11;;;;;;;;;;;180.10;2252.80;;;;;;5056934;28;19905;-81
2021/12/02 02:05:36;;;;;;;;;;;180.10;2252.80;;;;;;5057095;28;19909;-80
2021/12/02 02:08:10;;;;;;;;;;;180.10;2252.80;;;;;;5056759;28;19909;-81
2021/12/02 02:10:37;;;;;;;;;;;180.10;2252.80;;;;;;5056436;28;19904;-81
2021/12/02 02:13:09;;;;;;;;;;;180.00;2252.80;;;;;;5055563;28;19962;-80
2021/12/02 02:15:35;;;;;;;;;;;180.00;2252.80;;;;;;5055593;28;19912;-81
2021/12/02 02:20:39;;;;;;;;;;;180.00;2252.80;;;;;;5056554;28;19935;-81
2021/12/02 02:23:07;;;;;;;;;;;180.00;2252.80;;;;;;5055121;28;19905;-81
2021/12/02 02:25:33;;;;;;;;;;;179.90;2252.80;;;;;;5056456;28;19909;-80
2021/12/02 02:27:58;;;;;;;;;;;179.90;2252.80;;;;;;5055945;28;19916;-80
2021/12/02 02:30:24;;;;;;;;;;;179.90;2252.80;;;;;;5055876;28;19915;-79
2021/12/02 02:32:50;;;;;;;;;;;179.90;2252.80;;;;;;5056136;28;19999;-81
2021/12/02 02:35:15;;;;;;;;;;;180.00;2252.80;;;;;;5055892;28;19919;-81
2021/12/02 02:37:41;;;;;;;;;;;180.00;2252.80;;;;;;5056213;28;19905;-81
2021/12/02 02:40:09;;;;;;;;;;;180.00;2252.80;;;;;;5055688;28;19904;-81
2021/12/02 02:42:35;;;;;;;;;;;180.00;2252.80;;;;;;5055985;28;19927;-77
2021/12/02 02:45:01;;;;;;;;;;;180.00;2252.80;;;;;;5055769;28;20353;-81
2021/12/02 02:47:27;;;;;;;;;;;180.10;2252.80;;;;;;5055258;28;19904;-81
2021/12/02 02:49:53;;;;;;;;;;;180.10;2252.80;;;;;;5055236;28;19982;-82
2021/12/02 02:52:19;;;;;;;;;;;180.10;2252.80;;;;;;5055911;28;20013;-80
2021/12/02 02:54:46;;;;;;;;;;;180.10;2252.80;;;;;;5055451;28;19911;-81
2021/12/02 02:57:13;;;;;;;;;;;180.00;2252.80;;;;;;5055591;28;19908;-81
2021/12/02 03:02:22;;;;;;;;;;;180.00;2252.80;;;;;;5055184;28;19974;-81
2021/12/02 03:07:48;;;;;;;;;;;180.10;2252.80;;;;;;5056106;28;20329;-82
2021/12/02 03:17:42;;;;;;;;;;;204.80;2252.80;;;;;;5054954;28;19905;-80
2021/12/02 03:20:07;;;;;;;;;;;204.80;2252.80;;;;;;5055347;28;19951;-81
2021/12/02 03:22:33;;;;;;;;;;;204.80;2252.80;;;;;;5055263;28;19904;-79
2021/12/02 03:24:59;;;;;;;;;;;204.90;2252.80;;;;;;5054636;28;20353;-81
2021/12/02 03:27:26;;;;;;;;;;;204.80;2252.80;;;;;;5054149;28;19908;-80
2021/12/02 03:29:51;;;;;;;;;;;204.80;2252.80;;;;;;5054214;28;19927;-81
2021/12/02 03:32:17;;;;;;;;;;;180.10;2252.80;;;;;;5054871;28;20365;-81
2021/12/02 03:34:42;;;;;;;;;;;180.10;2252.80;;;;;;5054031;28;19913;-80
2021/12/02 03:37:08;;;;;;;;;;;180.10;2252.80;;;;;;5054897;28;20276;-81
2021/12/02 03:39:34;;;;;;;;;;;180.00;2252.80;;;;;;5054640;28;19905;-81
2021/12/02 03:42:00;;;;;;;;;;;180.00;2252.80;;;;;;5054754;28;19999;-81
2021/12/02 03:44:26;;;;;;;;;;;179.90;2252.80;;;;;;5054612;28;19918;-80
2021/12/02 03:46:52;;;;;;;;;;;179.90;2252.80;;;;;;5054925;28;19904;-82
2021/12/02 03:49:18;;;;;;;;;;;179.90;2252.80;;;;;;5054279;28;19916;-82
2021/12/02 03:51:44;;;;;;;;;;;180.00;2252.80;;;;;;5053427;28;19961;-82
2021/12/02 03:54:09;;;;;;;;;;;179.90;2252.80;;;;;;5054374;28;19904;-81
2021/12/02 03:56:35;;;;;;;;;;;180.00;2252.80;;;;;;5054000;28;20410;-82
2021/12/02 03:59:01;;;;;;;;;;;180.00;2252.80;;;;;;5052335;28;20307;-81
2021/12/02 04:01:26;;;;;;;;;;;179.90;2252.80;;;;;;5055071;28;19915;-81
2021/12/02 04:03:52;;;;;;;;;;;179.90;2252.80;;;;;;5054245;28;20359;-81
2021/12/02 04:06:19;;;;;;;;;;;179.90;2252.80;;;;;;5054345;28;20280;-78
2021/12/02 04:08:53;;;;;;;;;;;179.80;2252.80;;;;;;5054251;28;20414;-79
2021/12/02 04:11:36;;;;;;;;;;;179.70;2252.80;;;;;;5053597;28;19905;-81
2021/12/02 04:16:30;;;;;;;;;;;179.70;2252.80;;;;;;5053980;28;20349;-81
2021/12/02 04:18:55;;;;;;;;;;;179.60;2252.80;;;;;;5054087;28;19909;-81
2021/12/02 04:21:21;;;;;;;;;;;179.60;2252.80;;;;;;5053886;28;20297;-80
2021/12/02 04:23:47;;;;;;;;;;;179.60;2252.80;;;;;;5054126;28;19950;-80
2021/12/02 04:26:13;;;;;;;;;;;179.60;2252.80;;;;;;5054164;28;19908;-82
2021/12/02 04:28:38;;;;;;;;;;;179.50;2252.80;;;;;;5053891;28;20375;-81
2021/12/02 04:31:04;;;;;;;;;;;179.60;2252.80;;;;;;5054088;28;20391;-81
2021/12/02 04:33:30;;;;;;;;;;;179.50;2252.80;;;;;;5053405;28;19911;-81
2021/12/02 04:35:56;;;;;;;;;;;179.60;2252.80;;;;;;5053915;28;20419;-81
2021/12/02 04:38:22;;;;;;;;;;;179.60;2252.80;;;;;;5053799;28;19904;-80
2021/12/02 04:40:47;;;;;;;;;;;179.50;2252.80;;;;;;5053741;28;20242;-80
2021/12/02 04:43:13;;;;;;;;;;;179.60;2252.80;;;;;;5052553;28;20265;-81
2021/12/02 04:45:38;;;;;;;;;;;179.50;2252.80;;;;;;5053793;28;19912;-79
2021/12/02 04:48:04;;;;;;;;;;;179.50;2252.80;;;;;;5053260;28;19909;-80
2021/12/02 04:50:30;;;;;;;;;;;179.50;2252.80;;;;;;5052819;28;19916;-81
2021/12/02 04:52:55;;;;;;;;;;;179.50;2252.80;;;;;;5053398;28;20249;-81
2021/12/02 04:55:21;;;;;;;;;;;179.60;2252.80;;;;;;5052260;28;19917;-81
2021/12/02 04:57:47;;;;;;;;;;;179.60;2252.80;;;;;;5053969;28;19905;-80
2021/12/02 05:00:14;;;;;;;;;;;179.60;2252.80;;;;;;5053425;28;20281;-81
2021/12/02 05:02:41;;;;;;;;;;;179.60;2252.80;;;;;;5052850;28;19998;-81
2021/12/02 05:05:07;;;;;;;;;;;179.50;2252.80;;;;;;5053488;28;19959;-81
2021/12/02 05:07:33;;;;;;;;;;;179.50;2252.80;;;;;;5052532;28;19912;-81
2021/12/02 05:09:58;;;;;;;;;;;179.40;2252.80;;;;;;5052956;28;20570;-80
2021/12/02 05:12:24;;;;;;;;;;;179.40;2252.80;;;;;;5053478;28;19966;-81
2021/12/02 05:14:49;;;;;;;;;;;179.40;2252.80;;;;;;5052971;28;19905;-81
2021/12/02 05:17:15;;;;;;;;;;;179.30;2252.80;;;;;;5053257;28;20497;-81
2021/12/02 05:19:40;;;;;;;;;;;179.30;2252.80;;;;;;5053055;28;19905;-79
2021/12/02 05:22:08;;;;;;;;;;;179.40;2252.80;;;;;;5053104;28;19966;-81
2021/12/02 05:24:33;;;;;;;;;;;179.40;2252.80;;;;;;5053343;28;19905;-81
2021/12/02 05:26:59;;;;;;;;;;;179.50;2252.80;;;;;;5053124;28;20379;-81
2021/12/02 05:29:25;;;;;;;;;;;179.60;2252.80;;;;;;5053269;28;19936;-79
2021/12/02 05:31:50;;;;;;;;;;;179.60;2252.80;;;;;;5057643;28;19909;-81
2021/12/02 05:34:16;;;;;;;;;;;179.60;2252.80;;;;;;5072840;28;20721;-81
2021/12/02 05:36:41;;;;;;;;;;;179.70;2252.80;;;;;;5068889;28;19913;-81
2021/12/02 05:39:07;;;;;;;;;;;179.60;2252.80;;;;;;5073227;28;19904;-81
2021/12/02 05:41:33;;;;;;;;;;;179.60;2252.80;;;;;;5073052;28;19908;-81
2021/12/02 05:43:59;;;;;;;;;;;179.50;2252.80;;;;;;5071949;28;20250;-76
2021/12/02 05:46:25;;;;;;;;;;;179.50;2252.80;;;;;;5072652;28;19908;-80
2021/12/02 05:48:51;;;;;;;;;;;179.50;2252.80;;;;;;5072326;28;20363;-81
2021/12/02 05:51:16;;;;;;;;;;;179.40;2252.80;;;;;;5071450;28;20352;-81
2021/12/02 05:53:42;;;;;;;;;;;179.40;2252.80;;;;;;5072572;28;19908;-81
2021/12/02 05:56:08;;;;;;;;;;;179.40;2252.80;;;;;;5072793;28;20427;-80
2021/12/02 05:58:33;;;;;;;;;;;179.40;2252.80;;;;;;5072403;28;19904;-81
2021/12/02 06:00:59;;;;;;;;;;;179.40;2252.80;;;;;;5071346;28;20360;-80
2021/12/02 06:03:24;;;;;;;;;;;179.40;2252.80;;;;;;5071157;28;19919;-81
2021/12/02 06:05:50;;;;;;;;;;;179.50;2252.80;;;;;;5071433;28;19909;-81
2021/12/02 06:08:15;;;;;;;;;;;179.50;2252.80;;;;;;5072384;28;19950;-81
2021/12/02 06:10:41;;;;;;;;;;;179.60;2252.80;;;;;;5071496;28;19908;-79
2021/12/02 06:13:07;;;;;;;;;;;179.60;2252.80;;;;;;5072388;28;19908;-80
2021/12/02 06:15:33;;;;;;;;;;;179.70;2252.80;;;;;;5071569;28;19963;-81
2021/12/02 06:17:58;;;;;;;;;;;179.80;2252.80;;;;;;5072087;28;19908;-81
2021/12/02 06:20:24;;;;;;;;;;;179.70;2252.80;;;;;;5071339;28;19917;-78
2021/12/02 06:22:49;;;;;;;;;;;179.70;2252.80;;;;;;5075726;28;20359;-79
2021/12/02 06:25:44;;;;;;;;;;;179.70;2252.80;;;;;;5075677;28;19904;-79
2021/12/02 06:28:04;;;;;;;;;;;179.60;2252.80;;;;;;5076001;28;19904;-79
2021/12/02 06:30:30;;;;;;;;;;;179.80;2252.80;;;;;;5075533;28;19908;-75
2021/12/02 06:32:55;;;;;;;;;;;179.80;2252.80;;;;;;5075195;28;19965;-75
2021/12/02 06:35:21;;;;;;;;;;;179.80;2252.80;;;;;;5075217;28;19912;-76
2021/12/02 06:37:47;;;;;;;;;;;179.80;2252.80;;;;;;5075043;28;19908;-77
2021/12/02 06:40:13;;;;;;;;;;;179.80;2252.80;;;;;;5073805;28;19913;-75
2021/12/02 06:42:40;;;;;;;;;;;179.90;2252.80;;;;;;5074779;28;19908;-75
2021/12/02 06:45:06;;;;;;;;;;;179.90;2252.80;;;;;;5075293;28;20349;-76
2021/12/02 06:47:35;;;;;;;;;;;179.90;2252.80;;;;;;5073708;28;19908;-76
2021/12/02 06:50:03;;;;;;;;;;;180.00;2252.80;;;;;;5075401;28;20425;-77
2021/12/02 06:52:29;;;;;;;;;;;180.10;2252.80;;;;;;5075251;28;19912;-77
2021/12/02 06:54:55;;;;;;;;;;;180.10;2252.80;;;;;;5075417;28;20313;-79
2021/12/02 06:57:21;;;;;;;;;;;180.10;2252.80;;;;;;5075122;28;19951;-76
2021/12/02 06:59:47;;;;;;;;;;;204.80;2252.80;;;;;;5074870;28;19928;-76
2021/12/02 07:02:12;;;;;;;;;;;204.90;2252.80;;;;;;5074983;28;19915;-76
2021/12/02 07:04:38;;;;;;;;;;;204.90;2252.80;;;;;;5075123;28;20344;-78
2021/12/02 07:07:03;;;;;;;;;;;205.00;2252.80;;;;;;5075131;28;19904;-79
2021/12/02 07:09:29;;;;;;;;;;;205.00;2252.80;;;;;;5075124;28;20356;-80
2021/12/02 07:11:55;;;;;;;;;;;205.10;2252.80;;;;;;5075344;28;19995;-79
2021/12/02 07:14:21;;;;;;;;;;;205.20;2252.80;;;;;;5074860;28;19951;-78
2021/12/02 07:16:47;;;;;;;;;;;205.20;2252.80;;;;;;5075110;28;19912;-79
2021/12/02 07:19:13;;;;;;;;;;;205.20;2252.80;;;;;;5074801;28;19908;-75
2021/12/02 07:21:40;;;;;;;;;;;205.30;2252.80;;;;;;5074957;28;19931;-75
2021/12/02 07:24:06;;;;;;;;;;;205.20;2252.80;;;;;;5074534;28;19908;-77
2021/12/02 07:26:33;;;;;;;;;;;205.30;2252.80;;;;;;5074704;28;19943;-77
2021/12/02 07:28:58;;;;;;;;;;;205.30;2252.80;;;;;;5074879;28;19911;-77
2021/12/02 07:31:27;;;;;;;;;;;205.30;2252.80;;;;;;5074181;28;19904;-77
2021/12/02 07:33:53;;;;;;;;;;;205.30;2252.80;;;;;;5074332;28;19911;-79
2021/12/02 07:36:19;;;;;;;;;;;205.20;2252.80;;;;;;5074440;28;19912;-76
2021/12/02 07:38:45;;;;;;;;;;;205.30;2252.80;;;;;;5073404;28;19905;-77
2021/12/02 07:41:11;;;;;;;;;;;205.20;2252.80;;;;;;5074650;28;20367;-79
2021/12/02 07:43:38;;;;;;;;;;;205.20;2252.80;;;;;;5074578;28;19904;-75
2021/12/02 07:46:04;;;;;;;;;;;205.20;2252.80;;;;;;5074402;28;20257;-77
2021/12/02 07:48:29;;;;;;;;;;;205.20;2252.80;;;;;;5074130;28;19934;-79
2021/12/02 07:50:56;;;;;;;;;;;205.30;2252.80;;;;;;5073193;28;19920;-80
2021/12/02 07:53:24;;;;;;;;;;;205.30;2252.80;;;;;;5074296;28;20372;-77
2021/12/02 07:55:50;;;;;;;;;;;205.30;2252.80;;;;;;5072925;28;19912;-78
2021/12/02 07:58:16;;;;;;;;;;;205.30;2252.80;;;;;;5074033;28;19909;-77
2021/12/02 08:00:42;;;;;;;;;;;205.40;2252.80;;;;;;5073080;28;19911;-79
2021/12/02 08:03:10;;;;;;;;;;;205.30;2252.80;;;;;;5074231;28;19904;-78
2021/12/02 08:05:35;;;;;;;;;;;205.40;2252.80;;;;;;5073917;28;19905;-76
2021/12/02 08:08:01;;;;;;;;;;;205.50;2252.80;;;;;;5073707;28;19904;-76
2021/12/02 08:10:28;;;;;;;;;;;205.50;2252.80;;;;;;5073713;28;20418;-77
2021/12/02 08:12:55;;;;;;;;;;;205.60;2252.80;;;;;;5073490;28;19905;-77
2021/12/02 08:15:25;;;;;;;;;;;205.70;2252.80;;;;;;5073209;28;20284;-76
2021/12/02 08:17:51;;;;;;;;;;;230.40;2252.80;;;;;;5073526;28;19920;-77
2021/12/02 08:20:18;;;;;;;;;;;230.40;2252.80;;;;;;5073510;28;19912;-80
2021/12/02 08:22:43;;;;;;;;;;;230.50;2252.80;;;;;;5074221;28;19916;-81
2021/12/02 08:25:09;;;;;;;;;;;230.60;2252.80;;;;;;5073918;28;20279;-81
2021/12/02 08:27:35;;;;;;;;;;;230.90;2252.80;;;;;;5073549;28;19916;-81
2021/12/02 08:30:03;;;;;;;;;;;230.90;2252.80;;;;;;5073458;28;19904;-77
2021/12/02 08:32:28;;;;;;;;;;;231.00;2252.80;;;;;;5073474;28;20390;-77
2021/12/02 08:34:56;;;;;;;;;;;231.10;2252.80;;;;;;5072943;28;19908;-77
2021/12/02 08:37:22;;;;;;;;;;;231.20;2252.80;;;;;;5071958;28;19912;-78
2021/12/02 08:39:48;;;;;;;;;;;231.30;2252.80;;;;;;5073590;28;19950;-80
2021/12/02 08:42:16;;;;;;;;;;;256.00;2252.80;;;;;;5073388;28;19908;-78
2021/12/02 08:44:41;;;;;;;;;;;256.10;2252.80;;;;;;5071439;28;19914;-79
2021/12/02 08:47:09;;;;;;;;;;;256.20;2252.80;;;;;;5073180;28;20352;-78
2021/12/02 08:49:35;;;;;;;;;;;256.30;2252.80;;;;;;5073318;28;19923;-80
2021/12/02 08:52:00;;;;;;;;;;;256.30;2252.80;;;;;;5073443;28;19999;-79
2021/12/02 08:54:26;;;;;;;;;;;256.40;2252.80;;;;;;5073288;28;19904;-76
2021/12/02 08:56:51;;;;;;;;;;;256.40;2252.80;;;;;;5071876;28;19919;-78
2021/12/02 08:59:18;;;;;;;;;;;256.50;2252.80;;;;;;5073233;28;19904;-80
2021/12/02 09:01:43;;;;;;;;;;;256.50;2252.80;;;;;;5073275;28;19915;-80
2021/12/02 09:04:09;;;;;;;;;;;256.50;2252.80;;;;;;5073164;28;20405;-80
2021/12/02 09:06:35;;;;;;;;;;;256.50;2252.80;;;;;;5073679;28;19908;-80
2021/12/02 09:09:01;;;;;;;;;;;256.60;2252.80;;;;;;5072248;28;19987;-79
2021/12/02 09:11:27;;;;;;;;;;;256.80;2252.80;;;;;;5073327;28;19904;-78
2021/12/02 09:13:57;;;;;;;;;;;281.60;2278.40;;;;;;5073117;28;19919;-79
2021/12/02 09:16:23;;;;;;;;;;;281.80;2278.40;;;;;;5073135;28;19913;-78
2021/12/02 09:18:50;;;;;;;;;;;282.00;2278.40;;;;;;5072882;28;19908;-78
2021/12/02 09:21:16;;;;;;;;;;;282.10;2278.40;;;;;;5071967;28;19909;-78
2021/12/02 09:23:41;;;;;;;;;;;282.30;2278.40;;;;;;5072899;28;19904;-78
2021/12/02 09:26:07;;;;;;;;;;;282.50;2278.40;;;;;;5072738;28;19912;-77
2021/12/02 09:28:33;;;;;;;;;;;282.50;2278.40;;;;;;5072689;28;19943;-77
2021/12/02 09:30:58;;;;;;;;;;;307.30;2304.00;;;;;;5072720;28;19938;-78
2021/12/02 09:33:24;;;;;;;;;;;307.30;2304.00;;;;;;5072751;28;19927;-77
2021/12/02 09:35:49;;;;;;;;;;;307.40;2304.00;;;;;;5072425;28;19908;-77
2021/12/02 09:38:15;;;;;;;;;;;307.60;2304.00;;;;;;5072927;28;19904;-77
2021/12/02 09:40:42;;;;;;;;;;;307.60;2304.00;;;;;;5071368;28;19904;-77
2021/12/02 09:43:10;;;;;;;;;;;307.80;2304.00;;;;;;5072645;28;19971;-76
2021/12/02 09:45:36;;;;;;;;;;;307.80;2304.00;;;;;;5072315;28;20051;-77
2021/12/02 09:48:02;;;;;;;;;;;308.00;2304.00;;;;;;5072647;28;20003;-78
2021/12/02 09:50:34;;;;;;;;;;;307.90;2304.00;;;;;;5071047;28;19924;-77
2021/12/02 09:53:12;;;;;;;;;;;307.90;2304.00;;;;;;5072201;28;19914;-77
2021/12/02 09:58:22;;;;;;;;;;;308.00;2304.00;;;;;;5075984;28;20284;-76
2021/12/02 10:00:54;;;;;;;;;;;307.80;2304.00;;;;;;5076051;28;20272;-75
2021/12/02 10:03:58;;;;;;;;;;;307.90;2304.00;;;;;;5076206;28;19974;-78
2021/12/02 10:06:17;;;;;;;;;;;308.00;2304.00;;;;;;5072723;28;19911;-78
2021/12/02 10:11:30;;;;;;;;;;;308.10;2304.00;;;;;;5076360;28;19912;-78
2021/12/02 10:14:09;;;;;;;;;;;308.10;2304.00;;;;;;5075937;28;19904;-77
2021/12/02 10:16:39;;;;;;;;;;;332.80;2329.60;;;;;;5075761;28;19913;-78
2021/12/02 10:19:09;;;;;;;;;;;332.80;2329.60;;;;;;5075835;28;19908;-78
2021/12/02 10:24:03;;;;;;;;;;;333.00;2329.60;;;;;;5076166;28;20383;-77
2021/12/02 10:26:32;;;;;;;;;;;333.20;2329.60;;;;;;5075671;28;19904;-78
2021/12/02 10:29:05;;;;;;;;;;;333.20;2329.60;;;;;;5075789;28;19991;-77
2021/12/02 10:31:31;;;;;;;;;;;333.40;2329.60;;;;;;5075493;28;19927;-77
2021/12/02 10:34:02;;;;;;;;;;;333.50;2329.60;;;;;;5075300;28;20345;-77
2021/12/02 10:36:35;;;;;;;;;;;333.40;2329.60;;;;;;5075397;28;19919;-76
2021/12/02 10:39:07;;;;;;;;;;;333.30;2329.60;;;;;;5075396;28;19904;-77
2021/12/02 10:41:33;;;;;;;;;;;333.10;2329.60;;;;;;5075351;28;19940;-77
2021/12/02 10:44:01;;;;;;;;;;;333.40;2329.60;;;;;;5075232;28;19951;-76
2021/12/02 10:46:27;;;;;;;;;;;333.30;2329.60;;;;;;5075463;28;20250;-77
2021/12/02 10:48:53;;;;;;;;;;;333.20;2329.60;;;;;;5073684;28;19931;-77
2021/12/02 10:51:36;;;;;;;;;;;333.10;2329.60;;;;;;5074108;28;19909;-76
2021/12/02 10:54:04;;;;;;;;;;;333.00;2329.60;;;;;;5075140;28;19904;-77
2021/12/02 10:56:31;;;;;;;;;;;333.00;2329.60;;;;;;5074812;28;19973;-76
2021/12/02 10:58:57;;;;;;;;;;;333.00;2329.60;;;;;;5074997;28;20399;-76
2021/12/02 11:01:38;;;;;;;;;;;333.10;2329.60;;;;;;5074734;28;19946;-75
2021/12/02 11:04:05;;;;;;;;;;;333.10;2329.60;;;;;;5073519;28;19957;-76
2021/12/02 11:06:44;;;;;;;;;;;333.20;2329.60;;;;;;5074098;28;19904;-77
2021/12/02 11:09:25;;;;;;;;;;;333.30;2329.60;;;;;;5073307;28;20376;-76
2021/12/02 11:12:09;;;;;;;;;;;333.50;2329.60;;;;;;5074699;28;19908;-77
2021/12/02 11:14:35;;;;;;;;;;;333.50;2329.60;;;;;;5074892;28;19955;-77
2021/12/02 11:17:12;;;;;;;;;;;333.60;2329.60;;;;;;5074451;28;19951;-77
2021/12/02 11:19:37;;;;;;;;;;;333.50;2329.60;;;;;;5074215;28;19960;-77
2021/12/02 11:22:04;;;;;;;;;;;333.60;2329.60;;;;;;5074568;28;19955;-78
2021/12/02 11:24:33;;;;;;;;;;;358.50;2329.60;;;;;;5074486;28;19904;-77
2021/12/02 11:27:05;;;;;;;;;;;358.60;2329.60;;;;;;5074942;28;20384;-77
2021/12/02 11:29:48;;;;;;;;;;;358.50;2329.60;;;;;;5074449;28;19950;-75
2021/12/02 11:32:23;;;;;;;;;;;358.70;2329.60;;;;;;5074058;28;19908;-76
2021/12/02 11:35:00;;;;;;;;;;;358.80;2329.60;;;;;;5074376;28;19911;-75
2021/12/02 11:37:26;;;;;;;;;;;358.60;2329.60;;;;;;5073921;28;19951;-75
2021/12/02 11:39:52;;;;;;;;;;;358.60;2329.60;;;;;;5074317;28;20304;-77
2021/12/02 11:42:18;;;;;;;;;;;358.60;2329.60;;;;;;5074045;28;19912;-76
2021/12/02 11:44:44;;;;;;;;;;;358.50;2329.60;;;;;;5074249;28;19904;-76
2021/12/02 11:47:09;;;;;;;;;;;358.50;2329.60;;;;;;5072734;28;19905;-77
2021/12/02 11:49:35;;;;;;;;;;;358.50;2329.60;;;;;;5072190;28;20367;-76
2021/12/02 11:52:01;;;;;;;;;;;358.50;2329.60;;;;;;5073765;28;20042;-75
2021/12/02 11:54:27;;;;;;;;;;;358.50;2329.60;;;;;;5072322;28;20368;-76
2021/12/02 11:56:53;;;;;;;;;;;358.40;2329.60;;;;;;5073717;28;19912;-76
2021/12/02 11:59:20;;;;;;;;;;;358.40;2329.60;;;;;;5073802;28;19912;-76
2021/12/02 12:01:46;;;;;;;;;;;333.70;2329.60;;;;;;5072521;28;19905;-77
2021/12/02 12:04:13;;;;;;;;;;;333.70;2329.60;;;;;;5072271;28;19915;-76
2021/12/02 12:06:43;;;;;;;;;;;333.60;2329.60;;;;;;5073594;28;19908;-76
2021/12/02 12:09:12;;;;;;;;;;;333.50;2329.60;;;;;;5073343;28;19908;-79
2021/12/02 12:11:43;;;;;;;;;;;333.50;2329.60;;;;;;5073525;28;19905;-78
2021/12/02 12:14:11;;;;;;;;;;;333.50;2329.60;;;;;;5073736;28;20403;-80
2021/12/02 12:16:39;;;;;;;;;;;333.50;2329.60;;;;;;5073482;28;19938;-78
2021/12/02 12:19:30;;;;;;;;;;;333.60;2329.60;;;;;;5072755;28;20402;-78
2021/12/02 12:22:00;;;;;;;;;;;333.50;2329.60;;;;;;5073640;28;19965;-77
2021/12/02 12:24:55;;;;;;;;;;;333.50;2329.60;;;;;;5073329;28;19914;-79
2021/12/02 12:27:26;;;;;;;;;;;333.50;2329.60;;;;;;5031933;28;20492;-78
2021/12/02 12:30:00;;;;;;;;;;;333.60;2329.60;;;;;;5031804;28;19905;-77
2021/12/02 12:35:17;;;;;;;;;;;333.70;2329.60;;;;;;5031317;28;19912;-76
2021/12/02 12:40:12;;;;;;;;;;;333.70;2329.60;;;;;;5031095;28;19950;-76
2021/12/02 12:42:39;;;;;;;;;;;333.70;2329.60;;;;;;5014347;28;19913;-79
2021/12/02 12:45:06;;;;;;;;;;;333.70;2329.60;;;;;;5031071;28;19981;-77
2021/12/02 12:47:43;;;;;;;;;;;333.50;2329.60;;;;;;5031364;28;20318;-77
2021/12/02 12:50:24;;;;;;;;;;;333.40;2329.60;;;;;;5031307;28;19921;-79
2021/12/02 12:52:54;;;;;;;;;;;333.30;2329.60;;;;;;5030885;28;20369;-77
2021/12/02 12:55:20;;;;;;;;;;;333.20;2329.60;;;;;;5031257;28;19944;-78
2021/12/02 12:58:04;;;;;;;;;;;333.20;2329.60;;;;;;5030799;28;19943;-76
2021/12/02 13:00:34;;;;;;;;;;;333.10;2329.60;;;;;;5030791;28;19909;-77
2021/12/02 13:03:03;;;;;;;;;;;333.10;2329.60;;;;;;5039352;28;19940;-77
2021/12/02 13:05:40;;;;;;;;;;;333.10;2329.60;;;;;;5072637;28;19919;-76
2021/12/02 13:08:16;;;;;;;;;;;333.10;2329.60;;;;;;5071760;28;19904;-74
2021/12/02 13:10:55;;;;;;;;;;;333.10;2329.60;;;;;;5071678;28;19904;-78
2021/12/02 13:13:22;;;;;;;;;;;333.10;2329.60;;;;;;5072740;28;19908;-77
2021/12/02 13:15:48;;;;;;;;;;;333.10;2329.60;;;;;;5072711;28;19912;-77
2021/12/02 13:18:43;;;;;;;;;;;333.00;2329.60;;;;;;5072447;28;19995;-78
2021/12/02 13:21:31;;;;;;;;;;;333.10;2329.60;;;;;;5030740;28;20435;-79
2021/12/02 13:24:07;;;;;;;;;;;333.10;2329.60;;;;;;5030925;28;19928;-77
2021/12/02 13:26:32;;;;;;;;;;;333.00;2329.60;;;;;;5030676;28;19920;-77
2021/12/02 13:29:01;;;;;;;;;;;333.10;2329.60;;;;;;5030469;28;19996;-77
2021/12/02 13:31:28;;;;;;;;;;;333.10;2329.60;;;;;;5034001;28;19959;-77
2021/12/02 13:33:55;;;;;;;;;;;333.10;2329.60;;;;;;5034693;28;19910;-77
2021/12/02 13:36:39;;;;;;;;;;;333.00;2329.60;;;;;;5034836;28;19916;-77
2021/12/02 13:39:14;;;;;;;;;;;333.00;2329.60;;;;;;5034595;28;20004;-76
2021/12/02 13:41:40;;;;;;;;;;;332.90;2329.60;;;;;;5034486;28;19940;-77
2021/12/02 13:44:11;;;;;;;;;;;332.90;2329.60;;;;;;5034753;28;20321;-77
2021/12/02 13:46:50;;;;;;;;;;;332.90;2329.60;;;;;;5034270;28;20008;-77
2021/12/02 13:49:20;;;;;;;;;;;332.90;2329.60;;;;;;5034002;28;19964;-77
2021/12/02 13:54:32;;;;;;;;;;;332.80;2329.60;;;;;;5034503;28;19928;-78
2021/12/02 13:57:00;;;;;;;;;;;308.10;2304.00;;;;;;5030705;28;20065;-76
2021/12/02 13:59:36;;;;;;;;;;;308.10;2304.00;;;;;;5076006;28;19905;-75
2021/12/02 14:02:02;;;;;;;;;;;308.10;2304.00;;;;;;5074688;28;20364;-76
2021/12/02 14:04:28;;;;;;;;;;;308.10;2304.00;;;;;;5076030;28;19995;-77
2021/12/02 14:07:10;;;;;;;;;;;308.10;2304.00;;;;;;5075853;28;19935;-78
2021/12/02 14:10:02;;;;;;;;;;;308.10;2304.00;;;;;;5074886;28;20356;-78
2021/12/02 14:12:37;;;;;;;;;;;308.00;2304.00;;;;;;5074058;28;19904;-77
2021/12/02 14:15:04;;;;;;;;;;;308.10;2304.00;;;;;;5076044;28;19905;-78
2021/12/02 14:17:31;;;;;;;;;;;308.00;2304.00;;;;;;5075876;28;19912;-77
2021/12/02 14:20:03;;;;;;;;;;;308.00;2304.00;;;;;;5074874;28;19912;-78
2021/12/02 14:22:29;;;;;;;;;;;308.10;2304.00;;;;;;5075692;28;19905;-77